Time;durP1;ratioP1;P1;durP2;ratioP2;P2;SDS_P1;SDS_P2;PMS_P1;PMS_P2;Temp;Humidity;BMP_temperature;BMP_pressure;BME280_temperature;BME280_humidity;BME280_pressure;Samples;Min_cycle;Max_cycle;Signal;HPM_P1;HPM_P2
2023/01/09 00:01:29;;;;;;;8.57;3.83;;;6.80;99.90;;;;;;5010223;28;20125;-67
2023/01/09 00:03:54;;;;;;;8.82;4.13;;;6.80;99.90;;;;;;5010646;28;20100;-67
2023/01/09 00:06:20;;;;;;;10.35;4.15;;;6.80;99.90;;;;;;4992744;28;20525;-67
2023/01/09 00:08:46;;;;;;;7.15;3.72;;;6.80;99.90;;;;;;5008499;28;20478;-67
2023/01/09 00:11:11;;;;;;;4.95;3.78;;;6.80;99.90;;;;;;5010239;28;20046;-67
2023/01/09 00:13:37;;;;;;;5.25;3.88;;;6.90;99.90;;;;;;5010440;28;20616;-67
2023/01/09 00:16:07;;;;;;;7.18;4.05;;;6.90;99.90;;;;;;5010337;28;20038;-68
2023/01/09 00:18:34;;;;;;;7.13;4.38;;;6.90;99.90;;;;;;5008982;28;20188;-67
2023/01/09 00:21:01;;;;;;;5.85;4.07;;;6.90;99.90;;;;;;5003180;28;20046;-67
2023/01/09 00:23:26;;;;;;;7.55;5.13;;;6.90;99.90;;;;;;4999115;28;20116;-67
2023/01/09 00:26:15;;;;;;;9.73;4.15;;;6.90;99.90;;;;;;5008490;28;20065;-67
2023/01/09 00:28:41;;;;;;;10.02;5.53;;;7.00;99.90;;;;;;5005057;28;20058;-67
2023/01/09 00:31:08;;;;;;;11.90;5.13;;;7.00;99.90;;;;;;5003837;28;20207;-67
2023/01/09 00:33:37;;;;;;;8.45;4.25;;;7.00;99.90;;;;;;5002188;28;20041;-67
2023/01/09 00:36:03;;;;;;;16.85;4.88;;;7.00;99.90;;;;;;5009829;28;20520;-67
2023/01/09 00:38:29;;;;;;;8.88;5.38;;;7.00;99.90;;;;;;5009496;28;20041;-67
2023/01/09 00:40:55;;;;;;;7.60;4.70;;;7.00;99.90;;;;;;5008356;28;20037;-67
2023/01/09 00:43:25;;;;;;;7.25;5.47;;;7.00;99.90;;;;;;4990864;28;20116;-67
2023/01/09 00:45:51;;;;;;;8.20;5.05;;;7.00;99.90;;;;;;5006314;28;20103;-67
2023/01/09 00:48:25;;;;;;;8.18;5.43;;;7.00;99.90;;;;;;5008822;28;20634;-68
2023/01/09 00:50:56;;;;;;;5.78;5.18;;;7.00;99.90;;;;;;5010076;28;20124;-67
2023/01/09 00:53:24;;;;;;;9.85;5.85;;;7.00;99.90;;;;;;5010040;28;20033;-68
2023/01/09 00:55:50;;;;;;;16.00;6.53;;;7.00;99.90;;;;;;5009304;28;20583;-68
2023/01/09 00:58:17;;;;;;;8.65;3.95;;;6.90;99.90;;;;;;5007552;28;20054;-68
2023/01/09 01:00:42;;;;;;;4.97;2.85;;;6.90;99.90;;;;;;5003164;28;20069;-68
2023/01/09 01:03:08;;;;;;;4.40;2.50;;;6.90;99.90;;;;;;5004693;28;20073;-68
2023/01/09 01:08:19;;;;;;;5.43;2.58;;;6.90;99.90;;;;;;5009063;28;20046;-68
2023/01/09 01:10:46;;;;;;;3.72;2.88;;;6.80;99.90;;;;;;5009516;28;20050;-68
2023/01/09 01:13:11;;;;;;;3.35;2.35;;;6.90;99.90;;;;;;5008837;28;20044;-68
2023/01/09 01:15:39;;;;;;;4.00;2.28;;;6.80;99.90;;;;;;5007780;28;21012;-68
2023/01/09 01:18:05;;;;;;;4.47;2.45;;;6.80;99.90;;;;;;5004645;28;20054;-68
2023/01/09 01:20:31;;;;;;;5.13;2.33;;;6.80;99.90;;;;;;5006880;28;20045;-68
2023/01/09 01:22:56;;;;;;;4.53;2.10;;;6.80;99.90;;;;;;5009786;28;20052;-68
2023/01/09 01:25:22;;;;;;;2.50;2.30;;;6.80;99.90;;;;;;5008372;28;20045;-69
2023/01/09 01:27:48;;;;;;;2.65;2.30;;;6.80;99.90;;;;;;5009553;28;20046;-68
2023/01/09 01:30:16;;;;;;;2.85;2.25;;;6.80;99.90;;;;;;5008456;28;20077;-68
2023/01/09 01:32:42;;;;;;;5.25;2.13;;;6.80;99.90;;;;;;4994072;28;20037;-68
2023/01/09 01:35:09;;;;;;;3.55;2.05;;;6.80;99.90;;;;;;4988486;28;20590;-68
2023/01/09 01:37:36;;;;;;;3.50;1.70;;;6.70;99.90;;;;;;5007610;28;20125;-68
2023/01/09 01:40:02;;;;;;;2.97;1.65;;;6.70;99.90;;;;;;5008805;28;20042;-68
2023/01/09 01:42:28;;;;;;;7.22;2.22;;;6.70;99.90;;;;;;5007374;28;20076;-68
2023/01/09 01:45:08;;;;;;;1.75;1.65;;;6.70;99.90;;;;;;5008002;28;20038;-68
2023/01/09 01:47:37;;;;;;;1.80;1.70;;;6.70;99.90;;;;;;5008819;28;20044;-68
2023/01/09 01:50:25;;;;;;;11.43;1.77;;;6.70;99.90;;;;;;5006018;28;20435;-68
2023/01/09 01:53:10;;;;;;;2.25;2.05;;;6.70;99.90;;;;;;5006622;28;20127;-68
2023/01/09 01:55:43;;;;;;;11.02;2.40;;;6.70;99.90;;;;;;5007802;28;20092;-68
2023/01/09 01:58:13;;;;;;;4.03;1.60;;;6.70;99.90;;;;;;5007773;28;20522;-67
2023/01/09 02:00:43;;;;;;;4.60;1.90;;;6.60;99.90;;;;;;5007614;28;20104;-68
2023/01/09 02:03:11;;;;;;;1.92;1.75;;;6.60;99.90;;;;;;5007905;28;20046;-68
2023/01/09 02:05:38;;;;;;;5.55;2.63;;;6.60;99.90;;;;;;4990760;28;20398;-68
2023/01/09 02:08:05;;;;;;;4.53;2.83;;;6.60;99.90;;;;;;5003978;28;20372;-68
2023/01/09 02:10:31;;;;;;;3.30;2.38;;;6.60;99.90;;;;;;5007037;28;20128;-69
2023/01/09 02:13:01;;;;;;;5.88;2.70;;;6.60;99.90;;;;;;5007082;28;20050;-68
2023/01/09 02:15:33;;;;;;;2.95;2.65;;;6.60;99.90;;;;;;5007689;28;20042;-68
2023/01/09 02:18:28;;;;;;;4.80;2.45;;;6.50;99.90;;;;;;4997674;28;20666;-68
2023/01/09 02:20:56;;;;;;;4.80;2.95;;;6.60;99.90;;;;;;4967259;28;20053;-68
2023/01/09 02:23:52;;;;;;;11.93;3.30;;;6.60;99.90;;;;;;5007226;28;20041;-68
2023/01/09 02:26:27;;;;;;;5.18;3.88;;;6.60;99.90;;;;;;4968253;28;20148;-68
2023/01/09 02:29:36;;;;;;;4.38;3.85;;;6.60;99.90;;;;;;5008598;28;20053;-68
2023/01/09 02:32:11;;;;;;;5.80;4.53;;;6.60;99.90;;;;;;4969558;28;20053;-68
2023/01/09 02:35:17;;;;;;;7.88;4.72;;;6.60;99.90;;;;;;5007566;28;20063;-68
2023/01/09 02:37:47;;;;;;;4.53;4.03;;;6.60;99.90;;;;;;5006944;28;20052;-68
2023/01/09 02:40:46;;;;;;;14.88;4.57;;;6.60;99.90;;;;;;4988944;28;20133;-68
2023/01/09 02:43:12;;;;;;;8.77;5.47;;;6.60;99.90;;;;;;5005756;28;20112;-68
2023/01/09 02:45:38;;;;;;;6.13;4.65;;;6.60;99.90;;;;;;5005185;28;20161;-68
2023/01/09 02:48:04;;;;;;;8.05;5.40;;;6.60;99.90;;;;;;5008173;28;20109;-68
2023/01/09 02:50:34;;;;;;;12.38;5.65;;;6.60;99.90;;;;;;5007470;28;20049;-68
2023/01/09 02:53:25;;;;;;;12.25;5.80;;;6.60;99.90;;;;;;5007065;28;20045;-68
2023/01/09 02:56:12;;;;;;;14.35;4.82;;;6.60;99.90;;;;;;4989147;28;20088;-68
2023/01/09 02:58:57;;;;;;;12.02;4.82;;;6.60;99.90;;;;;;5007720;28;20470;-68
2023/01/09 03:01:43;;;;;;;5.70;4.70;;;6.60;99.90;;;;;;5006457;28;20074;-68
2023/01/09 03:04:24;;;;;;;5.85;4.75;;;6.50;99.90;;;;;;5008122;28;20050;-68
2023/01/09 03:07:06;;;;;;;14.15;4.78;;;6.50;99.90;;;;;;4994683;28;20100;-68
2023/01/09 03:09:36;;;;;;;7.78;4.78;;;6.50;99.90;;;;;;5007461;28;20052;-68
2023/01/09 03:12:06;;;;;;;9.02;4.65;;;6.50;99.90;;;;;;5009070;28;20503;-68
2023/01/09 03:14:33;;;;;;;7.28;4.30;;;6.40;99.90;;;;;;5005779;28;20046;-68
2023/01/09 03:17:05;;;;;;;13.75;5.75;;;6.40;99.90;;;;;;5011777;28;20728;-68
2023/01/09 03:19:33;;;;;;;5.18;3.97;;;6.40;99.90;;;;;;5011436;28;20147;-67
2023/01/09 03:21:59;;;;;;;9.18;4.53;;;6.40;99.90;;;;;;5011317;28;20077;-67
2023/01/09 03:24:25;;;;;;;8.40;5.30;;;6.30;99.90;;;;;;5011986;28;20049;-68
2023/01/09 03:26:53;;;;;;;7.82;4.80;;;6.30;99.90;;;;;;5009994;28;20041;-67
2023/01/09 03:29:18;;;;;;;10.07;5.05;;;6.20;99.90;;;;;;5011601;28;20077;-68
2023/01/09 03:31:44;;;;;;;12.75;5.13;;;6.20;99.90;;;;;;5003501;28;20143;-68
2023/01/09 03:34:10;;;;;;;8.23;4.15;;;6.20;99.90;;;;;;5004123;28;20196;-68
2023/01/09 03:36:35;;;;;;;8.38;5.05;;;6.20;99.90;;;;;;5005318;28;20533;-67
2023/01/09 03:39:01;;;;;;;10.40;5.43;;;6.10;99.90;;;;;;5011333;28;20057;-67
2023/01/09 03:41:26;;;;;;;7.68;5.07;;;6.10;99.90;;;;;;5008955;28;20045;-68
2023/01/09 03:43:52;;;;;;;6.22;4.20;;;6.10;99.90;;;;;;5010418;28;20029;-68
2023/01/09 03:46:18;;;;;;;6.35;4.68;;;6.00;99.90;;;;;;5010682;28;20507;-67
2023/01/09 03:48:43;;;;;;;8.32;4.55;;;6.00;99.90;;;;;;5010480;28;20042;-67
2023/01/09 03:51:09;;;;;;;7.63;5.18;;;6.00;99.90;;;;;;5009423;28;20495;-68
2023/01/09 03:53:35;;;;;;;10.23;4.63;;;5.90;99.90;;;;;;5010848;28;20041;-68
2023/01/09 03:56:00;;;;;;;11.88;4.53;;;5.90;99.90;;;;;;5010351;28;20199;-68
2023/01/09 03:58:26;;;;;;;8.18;5.32;;;5.90;99.90;;;;;;5009884;28;20111;-68
2023/01/09 04:01:00;;;;;;;8.10;5.32;;;5.80;99.90;;;;;;5010481;28;20042;-68
2023/01/09 04:03:26;;;;;;;8.77;5.13;;;5.80;99.90;;;;;;5010506;28;20052;-68
2023/01/09 04:05:51;;;;;;;10.15;5.07;;;5.70;99.90;;;;;;5009928;28;20030;-68
2023/01/09 04:08:17;;;;;;;9.10;5.43;;;5.70;99.90;;;;;;5003611;28;20061;-68
2023/01/09 04:10:48;;;;;;;8.35;5.50;;;5.60;99.90;;;;;;5010560;28;20042;-67
2023/01/09 04:13:14;;;;;;;8.07;5.25;;;5.60;99.90;;;;;;5010657;28;20054;-67
2023/01/09 04:15:40;;;;;;;13.07;5.78;;;5.60;99.90;;;;;;5004051;28;20089;-68
2023/01/09 04:18:06;;;;;;;10.50;5.60;;;5.50;99.90;;;;;;5009694;28;20077;-68
2023/01/09 04:20:33;;;;;;;10.27;5.30;;;5.50;99.90;;;;;;5009981;28;20046;-67
2023/01/09 04:22:59;;;;;;;9.00;6.05;;;5.40;99.90;;;;;;5007826;28;20034;-67
2023/01/09 04:25:25;;;;;;;11.82;5.75;;;5.40;99.90;;;;;;5010020;28;20538;-68
2023/01/09 04:27:51;;;;;;;12.93;6.30;;;5.40;99.90;;;;;;5005870;28;20069;-68
2023/01/09 04:30:17;;;;;;;9.30;6.53;;;5.40;99.90;;;;;;5000711;28;20072;-68
2023/01/09 04:32:42;;;;;;;10.85;7.00;;;5.40;99.90;;;;;;5001976;28;20037;-68
2023/01/09 04:35:08;;;;;;;17.42;8.30;;;5.40;99.90;;;;;;4997652;28;20049;-67
2023/01/09 04:37:37;;;;;;;10.93;8.30;;;5.40;99.90;;;;;;4989616;28;20415;-68
2023/01/09 04:40:12;;;;;;;11.93;9.25;;;5.40;99.90;;;;;;5009920;28;20096;-68
2023/01/09 04:42:38;;;;;;;15.85;9.75;;;5.40;99.90;;;;;;5001868;28;20053;-67
2023/01/09 04:45:06;;;;;;;16.92;10.20;;;5.40;99.90;;;;;;5007948;28;20038;-68
2023/01/09 04:47:31;;;;;;;14.30;10.13;;;5.40;99.90;;;;;;5000421;28;20038;-68
2023/01/09 04:49:57;;;;;;;16.02;11.13;;;5.30;99.90;;;;;;5009838;28;20042;-68
2023/01/09 04:52:23;;;;;;;15.05;11.55;;;5.30;99.90;;;;;;5009550;28;20476;-67
2023/01/09 04:54:49;;;;;;;13.65;10.10;;;5.30;99.90;;;;;;5009209;28;20045;-67
2023/01/09 04:57:15;;;;;;;18.20;11.75;;;5.30;99.90;;;;;;5010025;28;20081;-67
2023/01/09 04:59:41;;;;;;;17.58;12.23;;;5.20;99.90;;;;;;4991029;28;20050;-68
2023/01/09 05:02:06;;;;;;;17.42;12.27;;;5.20;99.90;;;;;;5007919;28;20053;-68
2023/01/09 05:04:32;;;;;;;20.77;12.07;;;5.20;99.90;;;;;;5008255;28;20128;-68
2023/01/09 05:06:57;;;;;;;20.80;12.00;;;5.20;99.90;;;;;;5008916;28;20041;-67
2023/01/09 05:09:23;;;;;;;15.60;11.35;;;5.20;99.90;;;;;;5005803;28;20050;-68
2023/01/09 05:11:49;;;;;;;21.60;12.95;;;5.10;99.90;;;;;;5007558;28;20042;-68
2023/01/09 05:14:15;;;;;;;20.48;14.07;;;5.10;99.90;;;;;;5005543;28;20058;-68
2023/01/09 05:16:41;;;;;;;23.85;14.82;;;5.10;99.90;;;;;;5008182;28;20030;-68
2023/01/09 05:19:06;;;;;;;23.50;15.43;;;5.10;99.90;;;;;;5009329;28;20046;-67
2023/01/09 05:21:33;;;;;;;37.70;15.70;;;5.10;99.90;;;;;;5008008;28;20125;-68
2023/01/09 05:23:59;;;;;;;23.23;15.50;;;5.10;99.90;;;;;;4999384;28;20109;-68
2023/01/09 05:26:25;;;;;;;26.35;17.25;;;5.10;99.90;;;;;;4999433;28;20145;-68
2023/01/09 05:28:51;;;;;;;29.38;17.45;;;5.10;99.90;;;;;;5005819;28;20042;-67
2023/01/09 05:31:18;;;;;;;30.42;17.15;;;5.10;99.90;;;;;;4975747;28;20045;-67
2023/01/09 05:33:45;;;;;;;27.85;18.25;;;5.10;99.90;;;;;;4988944;28;20054;-67
2023/01/09 05:36:11;;;;;;;23.63;17.45;;;5.10;99.90;;;;;;4996549;28;20042;-67
2023/01/09 05:38:37;;;;;;;36.45;20.13;;;5.20;99.90;;;;;;5006413;28;20104;-67
2023/01/09 05:41:03;;;;;;;35.65;21.33;;;5.20;99.90;;;;;;5004403;28;20561;-68
2023/01/09 05:43:28;;;;;;;30.55;18.92;;;5.20;99.90;;;;;;5004813;28;20054;-68
2023/01/09 05:45:54;;;;;;;28.20;18.55;;;5.20;99.90;;;;;;5008299;28;20074;-68
2023/01/09 05:48:19;;;;;;;30.52;18.50;;;5.20;99.90;;;;;;5008907;28;20044;-68
2023/01/09 05:50:45;;;;;;;34.25;19.10;;;5.20;99.90;;;;;;4989001;28;20046;-68
2023/01/09 05:53:11;;;;;;;26.40;18.40;;;5.20;99.90;;;;;;5009093;28;20151;-68
2023/01/09 05:55:36;;;;;;;32.72;21.33;;;5.20;99.90;;;;;;4981758;28;20061;-67
2023/01/09 05:58:02;;;;;;;26.27;18.58;;;5.30;99.90;;;;;;5003969;28;20112;-68
2023/01/09 06:00:28;;;;;;;28.45;19.17;;;5.30;99.90;;;;;;5008336;28;20496;-68
2023/01/09 06:02:53;;;;;;;29.38;18.75;;;5.30;99.90;;;;;;5005005;28;20426;-68
2023/01/09 06:05:19;;;;;;;31.10;19.77;;;5.30;99.90;;;;;;5002340;28;20073;-67
2023/01/09 06:07:44;;;;;;;24.65;17.25;;;5.30;99.90;;;;;;4990551;28;20487;-68
2023/01/09 06:10:12;;;;;;;27.35;18.73;;;5.30;99.90;;;;;;5007848;28;20064;-67
2023/01/09 06:12:39;;;;;;;26.67;17.40;;;5.30;99.90;;;;;;5008448;28;20054;-68
2023/01/09 06:15:05;;;;;;;29.60;17.85;;;5.40;99.90;;;;;;4984471;28;20559;-67
2023/01/09 06:17:31;;;;;;;29.70;18.13;;;5.40;99.90;;;;;;5002723;28;20384;-68
2023/01/09 06:19:56;;;;;;;28.33;17.25;;;5.40;99.90;;;;;;5004152;28;20087;-68
2023/01/09 06:22:22;;;;;;;26.33;15.82;;;5.40;99.90;;;;;;5006609;28;20041;-68
2023/01/09 06:24:48;;;;;;;27.27;16.45;;;5.40;99.90;;;;;;5007550;28;20058;-68
2023/01/09 06:27:13;;;;;;;24.75;17.40;;;5.40;99.90;;;;;;5005272;28;20404;-67
2023/01/09 06:29:39;;;;;;;31.65;18.67;;;5.40;99.90;;;;;;4992389;28;20547;-67
2023/01/09 06:32:05;;;;;;;30.42;17.23;;;5.40;99.90;;;;;;4998800;28;20052;-67
2023/01/09 06:34:31;;;;;;;30.30;16.73;;;5.40;99.90;;;;;;5000806;28;20050;-68
2023/01/09 06:36:56;;;;;;;27.40;16.65;;;5.40;99.90;;;;;;5003942;28;20056;-67
2023/01/09 06:39:22;;;;;;;25.70;14.80;;;5.40;99.90;;;;;;5007805;28;20420;-67
2023/01/09 06:41:48;;;;;;;24.98;15.95;;;5.40;99.90;;;;;;5007857;28;20396;-67
2023/01/09 06:44:13;;;;;;;21.90;15.00;;;5.40;99.90;;;;;;4999261;28;20510;-67
2023/01/09 06:46:39;;;;;;;22.23;13.23;;;5.40;99.90;;;;;;5006437;28;20411;-67
2023/01/09 06:49:05;;;;;;;22.98;14.95;;;5.50;99.90;;;;;;5008494;28;20046;-67
2023/01/09 06:51:31;;;;;;;21.17;14.65;;;5.50;99.90;;;;;;5006887;28;20549;-67
2023/01/09 06:53:56;;;;;;;24.85;14.77;;;5.50;99.90;;;;;;4998648;28;20042;-68
2023/01/09 06:56:22;;;;;;;26.55;14.50;;;5.50;99.90;;;;;;5007331;28;20049;-67
2023/01/09 06:58:47;;;;;;;22.35;12.63;;;5.50;99.90;;;;;;5007770;28;20100;-68
2023/01/09 07:01:13;;;;;;;24.58;13.15;;;5.50;99.90;;;;;;5007107;28;20042;-68
2023/01/09 07:03:39;;;;;;;20.02;12.95;;;5.50;99.90;;;;;;5008112;28;20125;-68
2023/01/09 07:06:05;;;;;;;19.65;11.65;;;5.50;99.90;;;;;;5007644;28;20056;-67
2023/01/09 07:08:31;;;;;;;17.58;11.75;;;5.50;99.90;;;;;;4986263;28;20829;-68
2023/01/09 07:10:57;;;;;;;20.77;12.15;;;5.50;99.90;;;;;;4999752;28;20043;-68
2023/01/09 07:13:22;;;;;;;16.67;11.68;;;5.50;99.90;;;;;;4981933;28;20042;-67
2023/01/09 07:15:48;;;;;;;24.80;14.45;;;5.50;99.90;;;;;;4989559;28;20047;-68
2023/01/09 07:18:14;;;;;;;19.95;13.65;;;5.50;99.90;;;;;;5007235;28;20045;-68
2023/01/09 07:20:40;;;;;;;25.08;12.90;;;5.50;99.90;;;;;;5007060;28;20065;-68
2023/01/09 07:23:10;;;;;;;21.23;11.40;;;5.50;99.90;;;;;;5002679;28;20096;-68
2023/01/09 07:25:36;;;;;;;24.98;12.55;;;5.50;99.90;;;;;;4983440;28;20048;-68
2023/01/09 07:28:02;;;;;;;19.98;11.77;;;5.40;99.90;;;;;;4997359;28;20406;-67
2023/01/09 07:30:28;;;;;;;17.75;10.35;;;5.30;99.90;;;;;;5000639;28;20054;-68
2023/01/09 07:32:55;;;;;;;15.20;11.93;;;5.40;99.90;;;;;;4982649;28;20046;-68
2023/01/09 07:35:21;;;;;;;13.90;11.02;;;5.30;99.90;;;;;;4997461;28;20129;-68
2023/01/09 07:37:47;;;;;;;16.63;9.82;;;5.30;99.90;;;;;;5005972;28;20335;-67
2023/01/09 07:40:12;;;;;;;15.25;9.40;;;5.30;99.90;;;;;;5007147;28;20045;-67
2023/01/09 07:42:38;;;;;;;16.95;9.75;;;5.20;99.90;;;;;;5003304;28;20046;-68
2023/01/09 07:45:05;;;;;;;20.65;8.57;;;5.20;99.90;;;;;;5005420;28;20045;-68
2023/01/09 07:47:31;;;;;;;16.70;9.10;;;5.20;99.90;;;;;;5001902;28;20050;-68
2023/01/09 07:49:57;;;;;;;18.83;8.70;;;5.20;99.90;;;;;;5002412;28;20169;-68
2023/01/09 07:52:22;;;;;;;16.45;10.07;;;5.20;99.90;;;;;;4988032;28;20934;-68
2023/01/09 07:54:48;;;;;;;14.00;8.80;;;5.20;99.90;;;;;;5000716;28;20047;-68
2023/01/09 07:57:14;;;;;;;12.15;8.52;;;5.20;99.90;;;;;;5007716;28;20053;-68
2023/01/09 07:59:39;;;;;;;13.70;8.32;;;5.20;99.90;;;;;;5008663;28;20049;-69
2023/01/09 08:02:06;;;;;;;15.07;8.98;;;5.20;99.90;;;;;;5006874;28;20192;-68
2023/01/09 08:04:31;;;;;;;12.68;7.95;;;5.20;99.90;;;;;;5009876;28;20064;-68
2023/01/09 08:06:58;;;;;;;15.57;9.73;;;5.30;99.90;;;;;;5005484;28;20046;-68
2023/01/09 08:09:24;;;;;;;14.43;8.63;;;5.30;99.90;;;;;;4993690;28;20034;-68
2023/01/09 08:11:49;;;;;;;17.55;10.25;;;5.30;99.90;;;;;;5007597;28;20107;-68
2023/01/09 08:14:15;;;;;;;27.92;9.82;;;5.30;99.90;;;;;;5000545;28;20042;-68
2023/01/09 08:16:41;;;;;;;17.95;9.77;;;5.30;99.90;;;;;;4991421;28;20495;-68
2023/01/09 08:19:07;;;;;;;16.48;9.40;;;5.30;99.90;;;;;;4998530;28;20096;-68
2023/01/09 08:21:33;;;;;;;14.73;9.77;;;5.30;99.90;;;;;;5006175;28;20490;-68
2023/01/09 08:24:00;;;;;;;16.73;8.38;;;5.40;99.90;;;;;;5001593;28;20049;-68
2023/01/09 08:26:26;;;;;;;11.13;6.93;;;5.30;99.90;;;;;;5010174;28;20096;-68
2023/01/09 08:28:51;;;;;;;14.43;9.18;;;5.30;99.90;;;;;;5010318;28;20050;-68
2023/01/09 08:31:17;;;;;;;13.05;7.65;;;5.40;99.90;;;;;;5002272;28;20474;-68
2023/01/09 08:33:43;;;;;;;14.38;7.05;;;5.40;99.90;;;;;;5009699;28;20860;-68
2023/01/09 08:36:09;;;;;;;14.00;7.05;;;5.40;99.90;;;;;;4982516;28;20057;-69
2023/01/09 08:38:35;;;;;;;14.75;10.38;;;5.40;99.90;;;;;;4997890;28;20051;-70
2023/01/09 08:47:04;;;;;;;13.13;8.65;;;5.50;99.90;;;;;;5006665;28;20141;-70
2023/01/09 08:49:15;;;;;;;25.17;12.50;;;5.50;99.90;;;;;;5009642;28;20058;-70
2023/01/09 08:51:41;;;;;;;35.72;17.13;;;5.50;99.90;;;;;;5004626;28;20420;-70
2023/01/09 08:54:06;;;;;;;26.13;12.60;;;5.50;99.90;;;;;;4981839;28;20518;-70
2023/01/09 08:56:32;;;;;;;37.33;14.80;;;5.50;99.90;;;;;;5002452;28;20081;-70
2023/01/09 08:58:57;;;;;;;19.17;11.45;;;5.50;99.90;;;;;;4998274;28;20042;-70
2023/01/09 09:01:23;;;;;;;20.40;9.50;;;5.60;99.90;;;;;;5007977;28;20110;-70
2023/01/09 09:03:49;;;;;;;30.85;13.43;;;5.60;99.90;;;;;;5008906;28;20566;-70
2023/01/09 09:06:14;;;;;;;18.27;8.05;;;5.60;99.90;;;;;;5009129;28;20144;-70
2023/01/09 09:08:40;;;;;;;42.97;15.13;;;5.60;99.90;;;;;;5009146;28;20042;-70
2023/01/09 09:11:06;;;;;;;65.50;24.67;;;5.70;99.90;;;;;;5005464;28;20124;-70
2023/01/09 09:13:32;;;;;;;36.47;15.70;;;5.70;99.90;;;;;;5009570;28;20521;-70
2023/01/09 09:15:58;;;;;;;47.47;22.88;;;5.70;99.90;;;;;;5008399;28;20495;-70
2023/01/09 09:18:24;;;;;;;18.63;11.50;;;5.80;99.90;;;;;;5004129;28;20052;-70
2023/01/09 09:20:49;;;;;;;14.85;8.65;;;5.80;99.90;;;;;;5009236;28;20125;-70
2023/01/09 09:23:15;;;;;;;15.77;8.00;;;5.90;99.90;;;;;;5009302;28;20064;-70
2023/01/09 09:25:41;;;;;;;11.60;7.38;;;5.90;99.90;;;;;;4972218;28;20376;-70
2023/01/09 09:28:07;;;;;;;20.52;7.90;;;5.90;99.90;;;;;;4991264;28;20049;-70
2023/01/09 09:30:33;;;;;;;25.27;9.30;;;5.90;99.90;;;;;;5009415;28;20045;-70
2023/01/09 09:33:01;;;;;;;21.88;9.55;;;6.00;99.90;;;;;;5008645;28;20610;-70
2023/01/09 09:35:27;;;;;;;14.70;7.72;;;6.00;99.90;;;;;;4983507;28;20054;-70
2023/01/09 09:37:54;;;;;;;13.35;7.72;;;6.00;99.90;;;;;;5009083;28;20061;-70
2023/01/09 09:40:37;;;;;;;14.25;7.30;;;6.10;99.90;;;;;;5004991;28;20104;-71
2023/01/09 09:46:28;;;;;;;11.52;6.55;;;6.10;99.90;;;;;;5005844;28;20423;-69
2023/01/09 09:49:02;;;;;;;16.70;8.00;;;6.10;99.90;;;;;;5008600;28;20062;-71
2023/01/09 09:51:27;;;;;;;10.80;7.45;;;6.20;99.90;;;;;;5007488;28;20046;-77
2023/01/09 09:54:03;;;;;;;15.80;7.75;;;6.20;99.90;;;;;;4986529;28;20137;-70
2023/01/09 09:56:33;;;;;;;20.75;7.57;;;6.30;99.90;;;;;;5008740;28;20071;-70
2023/01/09 09:59:04;;;;;;;16.92;9.00;;;6.40;99.90;;;;;;4991136;28;20061;-71
2023/01/09 10:01:56;;;;;;;12.60;7.72;;;6.50;99.90;;;;;;5001903;28;20062;-70
2023/01/09 10:04:25;;;;;;;12.65;7.97;;;6.60;99.90;;;;;;5010234;28;20507;-71
2023/01/09 10:06:56;;;;;;;13.73;8.07;;;6.60;99.90;;;;;;5004943;28;20419;-70
2023/01/09 10:09:48;;;;;;;20.00;7.18;;;6.60;99.90;;;;;;5008310;28;20081;-70
2023/01/09 10:12:32;;;;;;;13.70;5.90;;;6.70;99.90;;;;;;5004856;28;20076;-70
2023/01/09 10:15:01;;;;;;;8.07;6.57;;;6.70;99.90;;;;;;4983872;28;20052;-70
2023/01/09 10:17:44;;;;;;;12.90;6.65;;;6.80;99.90;;;;;;4988645;28;20054;-70
2023/01/09 10:20:16;;;;;;;12.60;6.85;;;6.80;99.90;;;;;;4989724;28;20119;-70
2023/01/09 10:23:04;;;;;;;16.40;7.72;;;6.80;99.90;;;;;;5006966;28;20080;-70
2023/01/09 10:25:55;;;;;;;8.68;6.43;;;6.90;99.90;;;;;;4990133;28;20054;-70
2023/01/09 10:28:46;;;;;;;15.13;6.03;;;7.00;99.90;;;;;;4997788;28;20431;-70
2023/01/09 10:31:16;;;;;;;11.13;6.93;;;7.00;99.90;;;;;;5007567;28;20431;-70
2023/01/09 10:34:13;;;;;;;12.70;6.93;;;7.00;99.90;;;;;;4999432;28;20045;-70
2023/01/09 10:37:04;;;;;;;9.93;5.25;;;7.00;99.90;;;;;;4995196;28;20427;-70
2023/01/09 10:39:53;;;;;;;9.15;6.10;;;7.00;99.90;;;;;;5003706;28;20089;-70
2023/01/09 10:42:30;;;;;;;9.55;5.15;;;7.10;99.90;;;;;;5000129;28;20515;-70
2023/01/09 10:45:17;;;;;;;9.55;5.65;;;7.10;99.90;;;;;;4985590;28;20096;-70
2023/01/09 10:47:45;;;;;;;9.05;5.32;;;7.20;99.90;;;;;;5002223;28;20104;-70
2023/01/09 10:50:13;;;;;;;12.30;6.07;;;7.20;99.90;;;;;;4988785;28;20050;-70
2023/01/09 10:52:40;;;;;;;;;;;7.20;99.90;;;;;;5003342;28;20054;-70
2023/01/09 10:55:29;;;;;;;13.18;6.70;;;7.20;99.90;;;;;;5004016;28;20315;-70
2023/01/09 10:58:03;;;;;;;8.27;5.35;;;7.20;99.90;;;;;;4985478;28;20056;-70
2023/01/09 11:00:29;;;;;;;13.10;6.32;;;7.30;99.90;;;;;;4986362;28;20104;-70
2023/01/09 11:02:54;;;;;;;16.63;5.63;;;7.30;99.90;;;;;;5006155;28;20042;-70
2023/01/09 11:05:26;;;;;;;16.35;6.85;;;7.30;99.90;;;;;;5007035;28;20462;-70
2023/01/09 11:08:03;;;;;;;11.10;5.55;;;7.30;99.90;;;;;;5000940;28;20124;-70
2023/01/09 11:10:49;;;;;;;10.00;5.63;;;7.30;99.90;;;;;;4987017;28;20054;-70
2023/01/09 11:13:31;;;;;;;11.25;5.50;;;7.30;99.90;;;;;;5007076;28;20088;-71
2023/01/09 11:16:16;;;;;;;9.63;7.30;;;7.30;99.90;;;;;;5005860;28;20093;-70
2023/01/09 11:18:53;;;;;;;20.75;7.57;;;7.30;99.90;;;;;;4986570;28;20792;-70
2023/01/09 11:21:27;;;;;;;11.93;5.85;;;7.30;99.90;;;;;;4995683;28;20617;-69
2023/01/09 11:23:54;;;;;;;17.40;6.70;;;7.30;99.90;;;;;;5003523;28;20097;-69
2023/01/09 11:26:27;;;;;;;8.75;5.63;;;7.30;99.90;;;;;;4994618;28;20617;-69
2023/01/09 11:29:05;;;;;;;12.40;6.70;;;7.40;99.90;;;;;;5007526;28;20116;-69
2023/01/09 11:31:31;;;;;;;9.30;6.03;;;7.40;99.90;;;;;;5007978;28;20517;-70
2023/01/09 11:33:57;;;;;;;9.13;6.28;;;7.40;99.90;;;;;;4986007;28;20049;-69
2023/01/09 11:36:24;;;;;;;8.82;5.80;;;7.40;99.90;;;;;;5010464;28;20104;-69
2023/01/09 11:38:53;;;;;;;16.23;7.68;;;7.50;99.90;;;;;;5008801;28;20558;-69
2023/01/09 11:41:23;;;;;;;8.98;6.55;;;7.50;99.90;;;;;;5008842;28;20505;-69
2023/01/09 11:43:53;;;;;;;13.90;8.20;;;7.50;99.90;;;;;;4982442;28;20050;-70
2023/01/09 11:46:39;;;;;;;11.70;9.20;;;7.50;99.90;;;;;;4999717;28;20061;-70
2023/01/09 11:49:23;;;;;;;23.40;15.52;;;7.60;99.90;;;;;;4993466;28;20049;-69
2023/01/09 11:52:15;;;;;;;19.25;12.80;;;7.60;99.90;;;;;;5009881;28;20102;-69
2023/01/09 11:55:10;;;;;;;14.50;9.57;;;7.60;99.90;;;;;;5010610;28;20042;-69
2023/01/09 11:57:36;;;;;;;10.90;8.48;;;7.60;99.90;;;;;;4997575;28;20462;-69
2023/01/09 12:00:19;;;;;;;22.83;8.82;;;7.60;99.90;;;;;;4993106;28;20042;-69
2023/01/09 12:03:08;;;;;;;9.93;7.57;;;7.60;99.90;;;;;;5000171;28;20038;-69
2023/01/09 12:05:53;;;;;;;10.18;7.53;;;7.60;99.90;;;;;;5008754;28;20045;-69
2023/01/09 12:08:37;;;;;;;9.18;8.23;;;7.60;99.90;;;;;;5002215;28;20937;-69
2023/01/09 12:11:06;;;;;;;9.43;7.60;;;7.60;99.90;;;;;;5010805;28;20049;-69
2023/01/09 12:13:52;;;;;;;11.70;8.68;;;7.60;99.90;;;;;;5009869;28;20376;-70
2023/01/09 12:16:52;;;;;;;15.70;9.02;;;7.60;99.90;;;;;;4987469;28;20084;-70
2023/01/09 12:19:21;;;;;;;12.73;7.57;;;7.60;99.90;;;;;;5008526;28;20422;-70
2023/01/09 12:21:57;;;;;;;12.23;8.65;;;7.60;99.90;;;;;;5009953;28;20219;-71
2023/01/09 12:24:32;;;;;;;15.02;9.02;;;7.60;99.90;;;;;;5009476;28;20050;-70
2023/01/09 12:27:27;;;;;;;13.88;8.00;;;7.60;99.90;;;;;;5010439;28;20053;-71
2023/01/09 12:30:10;;;;;;;11.52;7.63;;;7.60;99.90;;;;;;5009430;28;20085;-71
2023/01/09 12:32:47;;;;;;;11.73;9.32;;;7.60;99.90;;;;;;5008736;28;20089;-71
2023/01/09 12:35:52;;;;;;;20.27;9.68;;;7.60;99.90;;;;;;5003883;28;20129;-71
2023/01/09 12:38:34;;;;;;;17.20;10.85;;;7.60;99.90;;;;;;4996168;28;20084;-70
2023/01/09 12:41:22;;;;;;;14.38;10.20;;;7.60;99.90;;;;;;5009350;28;20399;-71
2023/01/09 12:44:12;;;;;;;18.40;10.80;;;7.60;99.90;;;;;;5009005;28;20792;-71
2023/01/09 12:46:55;;;;;;;15.35;10.73;;;7.60;99.90;;;;;;4990565;28;20091;-71
2023/01/09 12:49:34;;;;;;;16.05;10.38;;;7.70;99.90;;;;;;4988165;28;20045;-71
2023/01/09 12:52:24;;;;;;;18.42;10.98;;;7.70;99.90;;;;;;5008377;28;20450;-70
2023/01/09 12:55:01;;;;;;;13.95;10.27;;;7.70;99.90;;;;;;4990259;28;20046;-70
2023/01/09 12:57:34;;;;;;;13.75;10.25;;;7.70;99.90;;;;;;5007455;28;20056;-70
2023/01/09 13:00:19;;;;;;;16.08;10.43;;;7.70;99.90;;;;;;4986389;28;20076;-70
2023/01/09 13:02:50;;;;;;;15.30;9.93;;;7.70;99.90;;;;;;4989052;28;20527;-70
2023/01/09 13:05:22;;;;;;;20.70;10.55;;;7.70;99.90;;;;;;4999681;28;20050;-70
2023/01/09 13:07:53;;;;;;;12.48;9.45;;;7.70;99.90;;;;;;4995236;28;20049;-70
2023/01/09 13:10:32;;;;;;;17.30;11.30;;;7.70;99.90;;;;;;5002470;28;20062;-70
2023/01/09 13:13:05;;;;;;;16.00;10.85;;;7.70;99.90;;;;;;5007622;28;20046;-70
2023/01/09 13:15:41;;;;;;;16.63;11.00;;;7.70;99.90;;;;;;5008535;28;20088;-70
2023/01/09 13:18:20;;;;;;;12.23;8.70;;;7.70;99.90;;;;;;4998702;28;20101;-70